EDT,Max TemperatureF,Mean TemperatureF,Min TemperatureF,Max Dew PointF,MeanDew PointF,Min DewpointF,Max Humidity, Mean Humidity, Min Humidity, Max Sea Level PressureIn, Mean Sea Level PressureIn, Min Sea Level PressureIn, Max VisibilityMiles, Mean VisibilityMiles, Min VisibilityMiles, Max Wind SpeedMPH, Mean Wind SpeedMPH, Max Gust SpeedMPH,PrecipitationIn, CloudCover, Events, WindDirDegrees
2013-9-1,90,83,76,77,75,72,94,77,59,30.00,29.96,29.93,10,10,4,13,5,21,0.01,2,Rain-Thunderstorm,117
2013-9-2,88,82,75,79,76,73,100,86,72,30.03,30.00,29.94,10,8,1,15,4,20,0.28,4,Rain-Thunderstorm,74
2013-9-3,91,83,74,78,75,72,100,78,56,30.03,29.98,29.94,10,10,8,17,3,23,0.01,1,,131
2013-9-4,89,83,76,78,76,73,100,86,72,30.06,30.02,29.95,10,9,2,21,5,28,0.26,2,Rain-Thunderstorm,51
2013-9-5,93,85,76,79,76,70,100,80,60,30.07,30.03,30.00,10,8,1,20,4,25,0.48,3,Rain-Thunderstorm-Tornado,68
2013-9-6,93,82,71,79,76,70,97,81,64,30.05,29.98,29.91,10,8,0,37,8,52,2.57,4,Fog-Rain-Thunderstorm,32
2013-9-7,88,81,74,76,74,72,100,82,63,30.00,29.95,29.91,10,9,0,21,6,26,0.33,3,Rain-Thunderstorm,46
2013-9-8,88,81,73,75,73,70,100,80,59,29.96,29.92,29.86,10,10,10,21,6,28,0.01,2,,36
2013-9-9,91,83,74,76,74,72,100,78,56,30.00,29.95,29.90,10,10,9,20,6,25,T,2,,71
2013-9-10,92,84,75,76,74,71,100,78,56,30.04,30.00,29.96,10,10,9,25,10,30,T,1,,64
2013-9-11,87,81,74,76,74,72,100,85,70,30.04,30.01,29.97,10,8,0,18,7,23,1.77,3,Fog-Rain-Thunderstorm,84
2013-9-12,86,81,75,77,75,73,100,85,70,30.01,29.96,29.89,10,10,9,14,4,16,0.02,3,Rain,123
2013-9-13,88,81,73,75,73,72,100,81,61,29.91,29.87,29.82,10,10,10,12,3,15,0.00,0,,310
2013-9-14,90,83,76,76,74,72,94,77,59,29.96,29.89,29.84,10,10,10,13,3,29,0.00,1,Thunderstorm,283
2013-9-15,90,82,74,78,75,72,97,83,68,30.05,30.00,29.93,10,8,0,33,7,49,0.97,3,Fog-Rain-Thunderstorm,76
2013-9-16,89,82,75,78,75,74,100,84,68,30.03,30.00,29.95,10,9,2,17,8,22,0.22,2,Rain-Thunderstorm,61
2013-9-17,88,81,74,77,75,73,100,84,68,30.02,29.98,29.92,10,7,0,20,7,25,2.19,4,Fog-Rain-Thunderstorm,63
2013-9-18,90,82,73,77,75,73,100,84,68,30.01,29.97,29.93,10,8,0,15,6,18,0.79,4,Fog-Rain-Thunderstorm,51
2013-9-19,90,81,72,76,74,72,100,80,59,30.02,29.98,29.94,10,10,10,22,4,29,0.01,3,Thunderstorm,64
2013-9-20,90,82,74,75,72,69,100,76,52,30.01,29.95,29.89,10,10,9,15,8,18,0.00,1,,66
2013-9-21,88,80,72,75,72,70,93,74,55,29.94,29.85,29.78,10,10,10,14,5,17,0.00,1,,101
2013-9-22,88,82,75,77,76,73,94,81,68,29.87,29.82,29.78,10,10,8,15,5,18,0.00,1,,193
2013-9-23,87,82,76,80,78,75,100,88,75,29.96,29.90,29.85,10,9,2,23,5,31,0.13,3,Rain,156
2013-9-24,88,81,74,81,76,72,100,86,72,29.97,29.94,29.91,10,8,2,18,5,25,0.13,4,Rain,32
2013-9-25,85,80,75,79,75,72,100,85,70,29.93,29.88,29.80,10,8,2,15,5,22,0.27,4,Rain,339
2013-9-26,87,83,79,82,78,75,94,83,72,29.89,29.85,29.82,10,8,2,25,10,38,0.38,5,Rain-Thunderstorm,269
2013-9-27,87,81,74,75,72,69,94,76,57,29.93,29.88,29.85,10,10,7,15,6,20,0.00,1,,346
2013-9-28,91,82,73,73,72,68,94,73,52,29.97,29.92,29.88,10,10,10,17,7,22,0.00,2,,56
2013-9-29,88,80,72,73,72,71,100,80,59,29.97,29.93,29.88,10,10,9,13,7,18,T,3,,86
2013-9-30,89,81,72,73,71,67,100,78,56,30.00,29.94,29.89,10,9,2,18,7,23,0.14,4,Rain,106